Time;durP1;ratioP1;P1;durP2;ratioP2;P2;SDS_P1;SDS_P2;PMS_P1;PMS_P2;Temp;Humidity;BMP_temperature;BMP_pressure;BME280_temperature;BME280_humidity;BME280_pressure;Samples;Min_cycle;Max_cycle;Signal;HPM_P1;HPM_P2
2022/02/12 00:00:20;;;;;;;24.93;6.43;;;5.70;99.90;;;;;;5001330;28;20200;-88
2022/02/12 00:02:45;;;;;;;20.57;5.77;;;5.50;99.90;;;;;;4986361;28;20217;-86
2022/02/12 00:05:11;;;;;;;17.77;5.77;;;5.30;99.90;;;;;;4995921;28;20267;-87
2022/02/12 00:07:37;;;;;;;22.00;6.37;;;5.60;99.90;;;;;;4996654;28;20300;-86
2022/02/12 00:10:04;;;;;;;18.97;6.10;;;5.40;99.90;;;;;;4991541;28;20312;-87
2022/02/12 00:12:30;;;;;;;17.37;5.50;;;5.40;99.90;;;;;;4997895;28;20201;-87
2022/02/12 00:14:57;;;;;;;18.80;5.43;;;5.30;99.90;;;;;;4990221;28;20638;-87
2022/02/12 00:17:23;;;;;;;19.33;5.87;;;5.20;99.90;;;;;;4997881;28;20635;-87
2022/02/12 00:19:48;;;;;;;19.17;5.90;;;5.30;99.90;;;;;;4997721;28;20239;-89
2022/02/12 00:22:14;;;;;;;14.40;5.20;;;5.20;99.90;;;;;;4997784;28;20212;-88
2022/02/12 00:24:40;;;;;;;18.77;6.00;;;5.20;99.90;;;;;;4997108;28;20221;-86
2022/02/12 00:27:06;;;;;;;16.07;5.53;;;5.30;99.90;;;;;;4992858;28;20185;-88
2022/02/12 00:29:31;;;;;;;18.00;6.20;;;5.40;99.90;;;;;;4996727;28;20628;-87
2022/02/12 00:31:57;;;;;;;27.37;8.23;;;5.30;99.90;;;;;;4997474;28;20178;-86
2022/02/12 00:34:23;;;;;;;22.30;9.67;;;5.50;99.90;;;;;;4997632;28;20208;-87
2022/02/12 00:36:48;;;;;;;27.13;10.90;;;5.50;99.90;;;;;;4997091;28;20663;-87
2022/02/12 00:39:14;;;;;;;31.43;10.33;;;5.60;99.90;;;;;;4996801;28;20184;-86
2022/02/12 00:41:40;;;;;;;23.60;10.20;;;5.40;99.90;;;;;;4996966;28;20177;-87
2022/02/12 00:44:06;;;;;;;26.23;10.17;;;5.20;99.90;;;;;;4991160;28;21113;-87
2022/02/12 00:46:32;;;;;;;23.83;10.33;;;4.90;99.90;;;;;;4977186;28;20635;-87
2022/02/12 00:48:58;;;;;;;29.50;14.00;;;4.90;99.90;;;;;;4977179;28;20231;-87
2022/02/12 00:51:23;;;;;;;33.80;12.20;;;4.60;99.90;;;;;;4977534;28;20178;-87
2022/02/12 00:53:49;;;;;;;27.97;13.00;;;4.70;99.90;;;;;;4977168;28;20530;-86
2022/02/12 00:56:15;;;;;;;31.63;14.43;;;4.70;99.90;;;;;;4976679;28;20217;-84
2022/02/12 00:58:40;;;;;;;38.33;18.23;;;4.70;99.90;;;;;;4976634;28;20552;-86
2022/02/12 01:01:06;;;;;;;40.73;19.87;;;5.00;99.90;;;;;;4976837;28;21001;-86
2022/02/12 01:03:31;;;;;;;43.60;19.63;;;5.30;99.90;;;;;;4977129;28;20178;-85
2022/02/12 01:05:57;;;;;;;40.90;18.37;;;5.20;99.90;;;;;;4977330;28;20198;-87
2022/02/12 01:08:23;;;;;;;36.37;18.17;;;5.10;99.90;;;;;;4977484;28;20197;-87
2022/02/12 01:10:49;;;;;;;27.80;14.63;;;5.20;99.90;;;;;;4977386;28;20186;-86
2022/02/12 01:13:15;;;;;;;35.67;14.73;;;5.30;99.90;;;;;;4994609;28;20189;-87
2022/02/12 01:15:40;;;;;;;30.53;11.97;;;5.50;99.90;;;;;;4977350;28;20240;-88
2022/02/12 01:18:06;;;;;;;31.93;14.10;;;5.20;99.90;;;;;;4977596;28;20243;-87
2022/02/12 01:20:34;;;;;;;24.00;11.07;;;5.00;99.90;;;;;;4977469;28;20189;-88
2022/02/12 01:23:00;;;;;;;25.10;11.50;;;4.90;99.90;;;;;;4976308;28;20233;-87
2022/02/12 01:25:26;;;;;;;30.50;12.93;;;5.10;99.90;;;;;;4984734;28;20324;-87
2022/02/12 01:27:53;;;;;;;34.20;17.50;;;5.10;99.90;;;;;;4982990;28;20355;-86
2022/02/12 01:30:19;;;;;;;32.80;18.03;;;5.10;99.90;;;;;;4988337;28;20547;-86
2022/02/12 01:32:45;;;;;;;41.77;20.70;;;4.90;99.90;;;;;;4976226;28;20189;-87
2022/02/12 01:35:12;;;;;;;38.90;21.07;;;5.00;99.90;;;;;;4993887;28;20689;-86
2022/02/12 01:37:38;;;;;;;36.83;23.87;;;4.90;99.90;;;;;;4983293;28;20181;-88
2022/02/12 01:40:05;;;;;;;43.67;25.03;;;5.00;99.90;;;;;;4995730;28;20194;-88
2022/02/12 01:42:31;;;;;;;45.23;27.07;;;4.80;99.90;;;;;;4990746;28;20655;-88
2022/02/12 01:45:00;;;;;;;41.37;26.67;;;4.80;99.90;;;;;;4994995;28;20212;-88
2022/02/12 01:47:26;;;;;;;44.30;26.17;;;4.90;99.90;;;;;;4981326;28;20197;-88
2022/02/12 01:49:52;;;;;;;39.00;24.43;;;4.80;99.90;;;;;;4990332;28;20185;-88
2022/02/12 01:52:20;;;;;;;49.70;25.63;;;4.70;99.90;;;;;;4986767;28;20181;-89
2022/02/12 01:54:46;;;;;;;53.03;29.50;;;4.60;99.90;;;;;;4983010;28;20170;-89
2022/02/12 01:57:13;;;;;;;51.33;30.43;;;4.50;99.90;;;;;;4982669;28;20244;-88
2022/02/12 01:59:40;;;;;;;43.47;26.33;;;4.70;99.90;;;;;;4982817;28;20177;-88
2022/02/12 02:02:06;;;;;;;43.90;24.20;;;4.60;99.90;;;;;;4983050;28;20182;-88
2022/02/12 02:04:32;;;;;;;34.83;23.03;;;4.50;99.90;;;;;;4982890;28;20210;-88
2022/02/12 02:06:57;;;;;;;39.73;23.80;;;4.70;99.90;;;;;;4982790;28;20665;-89
2022/02/12 02:09:23;;;;;;;33.77;20.37;;;4.80;99.90;;;;;;4986532;28;20358;-88
2022/02/12 02:11:49;;;;;;;36.13;20.90;;;4.90;99.90;;;;;;4990319;28;20185;-88
2022/02/12 02:14:15;;;;;;;35.83;21.60;;;4.60;99.90;;;;;;5002286;28;20684;-88
2022/02/12 02:16:42;;;;;;;39.83;23.03;;;4.50;99.90;;;;;;5002117;28;20622;-87
2022/02/12 02:19:09;;;;;;;48.93;23.97;;;4.40;99.90;;;;;;5002258;28;20542;-88
2022/02/12 02:21:37;;;;;;;31.37;17.63;;;4.50;99.90;;;;;;5002281;28;20279;-88
2022/02/12 02:24:04;;;;;;;33.30;17.27;;;4.50;99.90;;;;;;5002323;28;20634;-88
2022/02/12 02:26:31;;;;;;;27.50;12.83;;;4.50;99.90;;;;;;5002020;28;20177;-88
2022/02/12 02:28:57;;;;;;;37.93;19.50;;;4.80;99.90;;;;;;5002262;28;20184;-88
2022/02/12 02:31:25;;;;;;;39.27;19.73;;;4.60;99.90;;;;;;5002297;28;20181;-88
2022/02/12 02:33:51;;;;;;;30.20;17.90;;;4.50;99.90;;;;;;5002186;28;20182;-87
2022/02/12 02:36:17;;;;;;;31.53;16.17;;;4.30;99.90;;;;;;5001853;28;20662;-89
2022/02/12 02:38:46;;;;;;;26.50;14.73;;;4.40;99.90;;;;;;5002330;28;20256;-88
2022/02/12 02:41:11;;;;;;;21.27;10.63;;;4.50;99.90;;;;;;5002203;28;20177;-89
2022/02/12 02:43:37;;;;;;;29.83;13.20;;;4.40;99.90;;;;;;5002163;28;20184;-89
2022/02/12 02:46:04;;;;;;;28.10;12.47;;;4.40;99.90;;;;;;5002024;28;20178;-88
2022/02/12 02:48:29;;;;;;;22.27;10.63;;;4.40;99.90;;;;;;5000692;28;20180;-87
2022/02/12 02:56:24;;;;;;;22.07;8.43;;;4.70;99.90;;;;;;5016312;28;20212;-87
2022/02/12 02:58:59;;;;;;;23.50;8.17;;;4.40;99.90;;;;;;4999151;28;20181;-90
2022/02/12 03:01:30;;;;;;;21.40;7.30;;;4.30;99.90;;;;;;4998730;28;20185;-87
2022/02/12 03:03:56;;;;;;;19.27;5.50;;;4.20;99.90;;;;;;4998777;28;20174;-87
2022/02/12 03:06:26;;;;;;;15.07;6.20;;;4.30;99.90;;;;;;4998481;28;20645;-87
2022/02/12 03:08:52;;;;;;;17.20;6.20;;;4.30;99.90;;;;;;4998244;28;20677;-87
2022/02/12 03:11:17;;;;;;;21.87;5.70;;;4.30;99.90;;;;;;4998854;28;20170;-89
2022/02/12 03:13:45;;;;;;;19.60;6.03;;;4.50;99.90;;;;;;4998601;28;20169;-87
2022/02/12 03:16:11;;;;;;;13.60;5.87;;;4.50;99.90;;;;;;4998316;28;20209;-86
2022/02/12 03:18:41;;;;;;;15.43;5.70;;;4.50;99.90;;;;;;4998589;28;20714;-89
2022/02/12 03:21:07;;;;;;;22.47;6.00;;;4.50;99.90;;;;;;4998463;28;20642;-89
2022/02/12 03:23:34;;;;;;;17.73;5.77;;;4.50;99.90;;;;;;4998277;28;20236;-86
2022/02/12 03:26:00;;;;;;;19.03;5.53;;;4.50;99.90;;;;;;4998569;28;20240;-86
2022/02/12 03:28:26;;;;;;;19.77;5.83;;;4.50;99.90;;;;;;4998034;28;20173;-89
2022/02/12 03:30:51;;;;;;;21.07;6.07;;;4.60;99.90;;;;;;4998073;28;20170;-88
2022/02/12 03:33:18;;;;;;;15.83;5.87;;;4.50;99.90;;;;;;4998130;28;20185;-88
2022/02/12 03:35:44;;;;;;;17.37;5.10;;;4.40;99.90;;;;;;4998263;28;20249;-88
2022/02/12 03:38:22;;;;;;;17.40;5.97;;;4.40;99.90;;;;;;4997732;28;20630;-89
2022/02/12 03:40:54;;;;;;;15.27;5.50;;;4.50;99.90;;;;;;4998065;28;20549;-89
2022/02/12 03:43:20;;;;;;;18.57;5.33;;;4.40;99.90;;;;;;4997849;28;20220;-87
2022/02/12 03:45:46;;;;;;;15.53;5.40;;;4.40;99.90;;;;;;4997832;28;20686;-88
2022/02/12 03:48:12;;;;;;;13.40;5.17;;;4.30;99.90;;;;;;4997913;28;20539;-88
2022/02/12 03:50:39;;;;;;;13.93;5.50;;;4.30;99.90;;;;;;4997828;28;20205;-88
2022/02/12 03:53:06;;;;;;;16.57;5.27;;;4.20;99.90;;;;;;4997491;28;20177;-88
2022/02/12 03:55:36;;;;;;;16.80;5.27;;;4.20;99.90;;;;;;4997889;28;20205;-89
2022/02/12 03:58:06;;;;;;;15.40;5.43;;;4.20;99.90;;;;;;4997509;28;20181;-89
2022/02/12 04:00:34;;;;;;;15.03;4.87;;;4.20;99.90;;;;;;4997677;28;20177;-88
2022/02/12 04:03:00;;;;;;;15.17;4.60;;;4.10;99.90;;;;;;4999878;28;20185;-86
2022/02/12 04:05:26;;;;;;;17.63;4.93;;;4.10;99.90;;;;;;4997552;28;20204;-89
2022/02/12 04:07:52;;;;;;;16.50;6.00;;;3.90;99.90;;;;;;4997007;28;20277;-86
2022/02/12 04:10:18;;;;;;;21.20;5.20;;;4.10;99.90;;;;;;4997610;28;20536;-89
2022/02/12 04:12:45;;;;;;;18.07;5.07;;;4.20;99.90;;;;;;4997528;28;20181;-87
2022/02/12 04:15:12;;;;;;;14.47;5.30;;;4.20;99.90;;;;;;4997549;28;20566;-89
2022/02/12 04:17:38;;;;;;;17.20;5.17;;;4.00;99.90;;;;;;4997298;28;20626;-89
2022/02/12 04:20:13;;;;;;;19.97;5.67;;;4.10;99.90;;;;;;4997036;28;20185;-88
2022/02/12 04:22:40;;;;;;;13.10;5.10;;;4.00;99.90;;;;;;4996964;28;20192;-86
2022/02/12 04:25:08;;;;;;;16.80;5.47;;;4.00;99.90;;;;;;4997278;28;20676;-88
2022/02/12 04:27:34;;;;;;;21.30;5.87;;;4.00;99.90;;;;;;4997015;28;20181;-89
2022/02/12 04:30:00;;;;;;;14.77;5.13;;;3.80;99.90;;;;;;4997229;28;20694;-89
2022/02/12 04:32:26;;;;;;;17.37;5.00;;;3.50;99.90;;;;;;4996902;28;20331;-86
2022/02/12 04:34:53;;;;;;;15.67;5.20;;;3.30;99.90;;;;;;4996767;28;20165;-87
2022/02/12 04:37:20;;;;;;;22.70;5.50;;;3.30;99.90;;;;;;4996729;28;20239;-86
2022/02/12 04:39:46;;;;;;;15.07;5.93;;;3.50;99.90;;;;;;4996893;28;20266;-89
2022/02/12 04:42:12;;;;;;;12.33;4.57;;;3.30;99.90;;;;;;4996721;28;20264;-88
2022/02/12 04:44:42;;;;;;;13.73;5.30;;;3.40;99.90;;;;;;4997005;28;20236;-88
2022/02/12 04:47:09;;;;;;;17.33;5.17;;;3.40;99.90;;;;;;4996766;28;20180;-89
2022/02/12 04:49:35;;;;;;;17.70;5.50;;;3.50;99.90;;;;;;4996669;28;20177;-87
2022/02/12 04:52:02;;;;;;;19.30;5.37;;;3.70;99.90;;;;;;4996661;28;20189;-88
2022/02/12 04:54:28;;;;;;;22.10;4.77;;;3.70;99.90;;;;;;4996845;28;20264;-88
2022/02/12 04:56:53;;;;;;;14.63;5.17;;;4.20;99.90;;;;;;4996638;28;20289;-88
2022/02/12 04:59:19;;;;;;;15.33;5.13;;;4.20;99.90;;;;;;4996401;28;20553;-89
2022/02/12 05:01:45;;;;;;;15.97;4.53;;;4.30;99.90;;;;;;4996717;28;20200;-88
2022/02/12 05:04:10;;;;;;;16.80;4.27;;;4.20;99.90;;;;;;4996361;28;20239;-89
2022/02/12 05:06:36;;;;;;;14.07;4.70;;;4.30;99.90;;;;;;4996515;28;20177;-88
2022/02/12 05:09:03;;;;;;;16.53;4.80;;;4.40;99.90;;;;;;4996228;28;20193;-89
2022/02/12 05:11:28;;;;;;;17.37;5.47;;;4.20;99.90;;;;;;4996098;28;20180;-88
2022/02/12 05:13:54;;;;;;;17.07;4.60;;;4.20;99.90;;;;;;4996264;28;20181;-88
2022/02/12 05:16:20;;;;;;;16.97;5.17;;;4.40;99.90;;;;;;4996632;28;20255;-88
2022/02/12 05:18:46;;;;;;;22.93;6.57;;;4.30;99.90;;;;;;4996032;28;20172;-88
2022/02/12 05:21:11;;;;;;;28.63;6.60;;;4.40;99.90;;;;;;4996261;28;20181;-89
2022/02/12 05:23:37;;;;;;;20.53;6.80;;;4.40;99.90;;;;;;4996384;28;20630;-89
2022/02/12 05:26:02;;;;;;;23.13;8.53;;;4.20;99.90;;;;;;4996601;28;20207;-86
2022/02/12 05:28:28;;;;;;;22.03;6.43;;;4.20;99.90;;;;;;4996052;28;20165;-88
2022/02/12 05:30:54;;;;;;;19.57;7.03;;;4.20;99.90;;;;;;4996314;28;20177;-89
2022/02/12 05:33:19;;;;;;;27.70;6.67;;;4.20;99.90;;;;;;4996047;28;20182;-88
2022/02/12 05:35:45;;;;;;;16.03;5.50;;;4.10;99.90;;;;;;4996216;28;20209;-88
2022/02/12 05:38:12;;;;;;;15.50;5.73;;;4.00;99.90;;;;;;4995951;28;20188;-88
2022/02/12 05:40:38;;;;;;;20.03;5.97;;;4.00;99.90;;;;;;4996301;28;20260;-88
2022/02/12 05:43:04;;;;;;;21.80;6.23;;;3.90;99.90;;;;;;4996230;28;20196;-88
2022/02/12 05:45:30;;;;;;;16.17;5.83;;;3.90;99.90;;;;;;4996322;28;20186;-89
2022/02/12 05:47:56;;;;;;;18.27;6.03;;;3.90;99.90;;;;;;4992847;28;20661;-89
2022/02/12 05:50:27;;;;;;;19.90;4.90;;;3.80;99.90;;;;;;4977875;28;20193;-88
2022/02/12 05:52:52;;;;;;;18.50;5.27;;;3.80;99.90;;;;;;4992167;28;20213;-89
2022/02/12 05:55:18;;;;;;;20.17;5.63;;;3.90;99.90;;;;;;4988963;28;20251;-88
2022/02/12 05:57:44;;;;;;;11.97;4.43;;;3.90;99.90;;;;;;4977031;28;20731;-89
2022/02/12 06:00:10;;;;;;;15.73;5.03;;;3.90;99.90;;;;;;4976374;28;20612;-89
2022/02/12 06:02:35;;;;;;;18.23;5.53;;;4.00;99.90;;;;;;4976171;28;20212;-88
2022/02/12 06:05:02;;;;;;;19.73;6.60;;;3.80;99.90;;;;;;4976560;28;20225;-88
2022/02/12 06:07:28;;;;;;;19.30;4.67;;;3.90;99.90;;;;;;4976145;28;20569;-88
2022/02/12 06:09:54;;;;;;;18.13;4.47;;;3.90;99.90;;;;;;4976509;28;20189;-89
2022/02/12 06:12:19;;;;;;;17.20;5.50;;;4.00;99.90;;;;;;4976351;28;20186;-89
2022/02/12 06:14:45;;;;;;;12.10;4.70;;;4.00;99.90;;;;;;4976228;28;20213;-89
2022/02/12 06:17:10;;;;;;;12.23;4.37;;;4.00;99.90;;;;;;4976140;28;20182;-89
2022/02/12 06:19:36;;;;;;;14.17;3.90;;;4.00;99.90;;;;;;4976141;28;20638;-89
2022/02/12 06:22:02;;;;;;;14.73;4.73;;;3.80;99.90;;;;;;4976337;28;20186;-88
2022/02/12 06:24:31;;;;;;;13.83;4.23;;;3.80;99.90;;;;;;4977597;28;20170;-88
2022/02/12 06:26:57;;;;;;;12.57;4.30;;;3.90;99.90;;;;;;4980097;28;20173;-88
2022/02/12 06:29:26;;;;;;;14.70;4.90;;;3.90;99.90;;;;;;4980055;28;20186;-89
2022/02/12 06:31:52;;;;;;;10.73;4.30;;;4.00;99.90;;;;;;4979625;28;20273;-88
2022/02/12 06:34:18;;;;;;;19.23;4.50;;;3.90;99.90;;;;;;4979631;28;20321;-88
2022/02/12 06:36:44;;;;;;;20.07;4.80;;;3.90;99.90;;;;;;4979444;28;20299;-89
2022/02/12 06:39:09;;;;;;;16.90;4.90;;;3.80;99.90;;;;;;4979765;28;20288;-89
2022/02/12 06:41:35;;;;;;;17.37;4.60;;;3.80;99.90;;;;;;4979761;28;20178;-88
2022/02/12 06:44:01;;;;;;;13.50;4.10;;;3.90;99.90;;;;;;4979767;28;20204;-89
2022/02/12 06:46:27;;;;;;;14.83;4.77;;;3.80;99.90;;;;;;4980937;28;20174;-89
2022/02/12 06:48:52;;;;;;;17.87;4.60;;;3.70;99.90;;;;;;4984248;28;20645;-88
2022/02/12 06:51:18;;;;;;;17.57;4.53;;;3.80;99.90;;;;;;4981227;28;20454;-88
2022/02/12 06:53:44;;;;;;;18.83;4.90;;;3.70;99.90;;;;;;4979605;28;20264;-89
2022/02/12 06:56:10;;;;;;;17.90;4.77;;;3.60;99.90;;;;;;4979531;28;20224;-87
2022/02/12 06:58:36;;;;;;;18.37;4.50;;;3.70;99.90;;;;;;4979784;28;20189;-88
2022/02/12 07:01:02;;;;;;;17.03;4.70;;;3.60;99.90;;;;;;4978897;28;20177;-87
2022/02/12 07:03:29;;;;;;;12.87;4.50;;;3.70;99.90;;;;;;4979284;28;20178;-88
2022/02/12 07:05:55;;;;;;;16.80;4.43;;;3.70;99.90;;;;;;4979243;28;20667;-88
2022/02/12 07:08:20;;;;;;;11.73;4.50;;;3.70;99.90;;;;;;4979048;28;20229;-88
2022/02/12 07:10:46;;;;;;;10.13;3.60;;;3.80;99.90;;;;;;4979065;28;20189;-88
2022/02/12 07:13:13;;;;;;;10.10;3.57;;;4.00;99.90;;;;;;4979167;28;20201;-89
2022/02/12 07:15:39;;;;;;;12.57;3.60;;;3.90;99.90;;;;;;4978699;28;20194;-89
2022/02/12 07:18:05;;;;;;;15.53;4.30;;;4.00;99.90;;;;;;4978357;28;20665;-88
2022/02/12 07:20:30;;;;;;;19.17;4.27;;;3.90;99.90;;;;;;4979025;28;20213;-88
2022/02/12 07:22:56;;;;;;;15.33;4.10;;;4.00;99.90;;;;;;4980884;28;20212;-88
2022/02/12 07:25:21;;;;;;;17.90;4.37;;;4.00;99.90;;;;;;4985515;28;20280;-88
2022/02/12 07:27:47;;;;;;;13.10;3.70;;;3.90;99.90;;;;;;4998832;28;20626;-88
2022/02/12 07:30:16;;;;;;;18.00;5.50;;;4.00;99.90;;;;;;4997944;28;20543;-88
2022/02/12 07:32:43;;;;;;;14.73;4.23;;;4.00;99.90;;;;;;4978451;28;20174;-88
2022/02/12 07:35:11;;;;;;;15.37;4.70;;;4.10;99.90;;;;;;4978557;28;20210;-88
2022/02/12 07:37:41;;;;;;;10.97;4.17;;;4.00;99.90;;;;;;4978683;28;20185;-89
2022/02/12 07:40:08;;;;;;;13.40;3.90;;;4.00;99.90;;;;;;4987033;28;20197;-88
2022/02/12 07:42:34;;;;;;;11.90;4.00;;;4.20;99.90;;;;;;4993752;28;20196;-89
2022/02/12 07:45:00;;;;;;;12.20;3.87;;;4.20;99.90;;;;;;4978340;28;20228;-88
2022/02/12 07:47:25;;;;;;;14.17;3.90;;;4.10;99.90;;;;;;4978217;28;20185;-88
2022/02/12 07:49:51;;;;;;;9.67;4.20;;;4.00;99.90;;;;;;4978232;28;20550;-88
2022/02/12 07:52:19;;;;;;;12.90;3.70;;;4.00;99.90;;;;;;4978338;28;20185;-88
2022/02/12 07:54:44;;;;;;;11.70;3.60;;;4.00;99.90;;;;;;4978555;28;20174;-88
2022/02/12 07:57:10;;;;;;;15.40;4.17;;;3.90;99.90;;;;;;4978226;28;20716;-88
2022/02/12 07:59:35;;;;;;;21.90;4.80;;;4.00;99.90;;;;;;4978058;28;20189;-89
2022/02/12 08:02:01;;;;;;;13.03;4.03;;;4.20;99.90;;;;;;4977610;28;20267;-88
2022/02/12 08:04:28;;;;;;;17.07;4.10;;;4.10;99.90;;;;;;4978159;28;20210;-88
2022/02/12 08:09:38;;;;;;;11.93;3.67;;;4.10;99.90;;;;;;4995598;28;20184;-89
2022/02/12 08:12:13;;;;;;;16.33;4.30;;;4.10;99.90;;;;;;4977862;28;20166;-89
2022/02/12 08:14:48;;;;;;;12.27;4.40;;;4.10;99.90;;;;;;4977424;28;20253;-89
2022/02/12 08:17:17;;;;;;;15.13;3.67;;;4.20;99.90;;;;;;4978258;28;20573;-88
2022/02/12 12:23:20;;;;;;;11.23;4.40;;;18.40;69.10;;;;;;5027046;28;20233;-88
2022/02/12 12:26:06;;;;;;;9.13;2.90;;;18.90;67.90;;;;;;5031987;28;20186;-86
2022/02/12 12:28:40;;;;;;;7.07;2.80;;;18.80;66.30;;;;;;5009709;28;20252;-86
2022/02/12 12:31:14;;;;;;;10.23;3.00;;;18.10;66.70;;;;;;5016318;28;20203;-86
2022/02/12 12:33:43;;;;;;;7.80;2.70;;;18.00;67.00;;;;;;5006235;28;20178;-86
2022/02/12 12:36:11;;;;;;;10.13;2.67;;;18.00;65.60;;;;;;5002825;28;20209;-86
2022/02/12 12:38:41;;;;;;;7.77;2.80;;;17.50;65.90;;;;;;4977029;28;20179;-88
2022/02/12 12:41:24;;;;;;;8.40;2.53;;;16.90;65.40;;;;;;4977571;28;20763;-86
2022/02/12 12:44:09;;;;;;;10.37;2.33;;;16.60;65.70;;;;;;4994245;28;20698;-86
2022/02/12 12:46:37;;;;;;;9.20;2.60;;;17.10;65.60;;;;;;4996049;28;20637;-88
2022/02/12 12:49:03;;;;;;;6.80;2.50;;;17.60;65.80;;;;;;4992340;28;20195;-87
2022/02/12 12:51:29;;;;;;;10.10;3.27;;;18.10;65.10;;;;;;4995760;28;20558;-87
2022/02/12 12:53:54;;;;;;;8.80;2.90;;;18.70;64.00;;;;;;4995876;28;20184;-87
2022/02/12 12:56:27;;;;;;;8.00;2.33;;;19.50;63.70;;;;;;4991381;28;20221;-92
2022/02/12 12:59:07;;;;;;;12.20;2.77;;;20.00;61.30;;;;;;4995057;28;20178;-90
2022/02/12 13:01:33;;;;;;;5.47;2.37;;;20.50;60.00;;;;;;5012283;28;20189;-90
2022/02/12 13:04:00;;;;;;;7.40;2.80;;;20.40;60.60;;;;;;4994023;28;20669;-90
2022/02/12 13:06:27;;;;;;;12.27;2.30;;;20.30;59.80;;;;;;4995064;28;20192;-90
2022/02/12 13:08:56;;;;;;;7.23;1.97;;;20.90;60.00;;;;;;4995297;28;20180;-90
2022/02/12 13:11:32;;;;;;;7.97;2.20;;;20.50;57.70;;;;;;4995497;28;20185;-89
2022/02/12 13:14:03;;;;;;;7.50;1.97;;;20.20;58.00;;;;;;4995361;28;20214;-89
2022/02/12 13:16:40;;;;;;;8.80;2.40;;;19.30;58.80;;;;;;4989136;28;20215;-89
2022/02/12 13:19:19;;;;;;;6.60;2.07;;;18.80;58.60;;;;;;4986866;28;20182;-88
2022/02/12 13:21:57;;;;;;;5.83;2.23;;;18.50;59.80;;;;;;4995674;28;20205;-90
2022/02/12 13:24:32;;;;;;;5.43;2.20;;;18.10;59.90;;;;;;4995586;28;20179;-89
2022/02/12 13:26:58;;;;;;;5.77;2.10;;;18.50;60.40;;;;;;4996278;28;20242;-90
2022/02/12 13:29:26;;;;;;;9.50;2.60;;;19.00;61.20;;;;;;4995011;28;20273;-89
2022/02/12 13:32:00;;;;;;;5.13;2.20;;;19.00;59.30;;;;;;5011658;28;20216;-90
2022/02/12 13:34:28;;;;;;;5.90;2.00;;;19.00;60.20;;;;;;4990860;28;20269;-89
2022/02/12 13:36:57;;;;;;;6.83;2.57;;;19.60;59.10;;;;;;4992729;28;20222;-89
2022/02/12 13:39:23;;;;;;;4.60;2.00;;;19.20;58.90;;;;;;4988092;28;20186;-93
2022/02/12 13:41:58;;;;;;;6.77;2.40;;;18.70;58.80;;;;;;4992099;28;20185;-89
2022/02/12 13:44:32;;;;;;;8.93;2.30;;;17.30;61.00;;;;;;4996091;28;20188;-89
2022/02/12 13:47:04;;;;;;;7.33;2.27;;;16.00;62.00;;;;;;4994955;28;20265;-90
2022/02/12 13:49:35;;;;;;;7.63;2.57;;;14.20;65.00;;;;;;5000516;28;20169;-87
2022/02/12 13:52:01;;;;;;;7.67;2.17;;;13.60;66.20;;;;;;5009467;28;20185;-89
2022/02/12 13:54:29;;;;;;;7.70;2.33;;;13.10;67.30;;;;;;5007468;28;20733;-88
2022/02/12 13:57:01;;;;;;;7.23;2.30;;;12.80;68.50;;;;;;4995651;28;20239;-87
2022/02/12 13:59:26;;;;;;;5.07;2.10;;;12.50;68.00;;;;;;4998743;28;20188;-89
2022/02/12 14:01:55;;;;;;;6.70;3.00;;;11.90;69.40;;;;;;4996793;28;20208;-89
2022/02/12 14:04:21;;;;;;;7.37;2.03;;;11.70;70.10;;;;;;4995445;28;20204;-89
2022/02/12 14:06:48;;;;;;;9.57;2.03;;;11.50;70.00;;;;;;4989966;28;20177;-89
2022/02/12 14:09:20;;;;;;;8.30;2.10;;;11.50;70.60;;;;;;5003985;28;20271;-89
2022/02/12 14:11:47;;;;;;;6.40;1.90;;;11.50;70.90;;;;;;4996580;28;20203;-89
2022/02/12 14:14:14;;;;;;;6.77;2.03;;;11.40;69.80;;;;;;5003948;28;20657;-90
2022/02/12 14:16:45;;;;;;;5.67;2.07;;;11.30;70.60;;;;;;5021058;28;20310;-88
2022/02/12 14:19:14;;;;;;;4.63;1.80;;;11.20;71.10;;;;;;5011025;28;20176;-90
2022/02/12 14:21:40;;;;;;;7.53;2.40;;;11.10;71.10;;;;;;4994846;28;20215;-88
2022/02/12 14:24:07;;;;;;;9.47;2.50;;;10.90;72.40;;;;;;4995513;28;20208;-89
2022/02/12 14:26:34;;;;;;;7.60;2.30;;;10.90;72.70;;;;;;4994863;28;20648;-88
2022/02/12 14:29:01;;;;;;;8.43;2.70;;;10.90;73.10;;;;;;4995615;28;20177;-89
2022/02/12 14:31:26;;;;;;;5.97;2.30;;;10.80;72.80;;;;;;4997785;28;20190;-88
2022/02/12 14:33:53;;;;;;;7.30;3.30;;;10.60;73.00;;;;;;4996408;28;20263;-88
2022/02/12 14:36:18;;;;;;;6.57;2.57;;;10.60;73.00;;;;;;4995007;28;20220;-89
2022/02/12 14:38:44;;;;;;;12.07;3.17;;;10.60;73.80;;;;;;4995122;28;20170;-90
2022/02/12 14:41:12;;;;;;;5.50;2.60;;;10.70;73.30;;;;;;4994901;28;20180;-87
2022/02/12 14:43:38;;;;;;;7.93;2.90;;;10.90;73.50;;;;;;4995290;28;20299;-88
2022/02/12 14:46:03;;;;;;;6.83;2.60;;;11.10;72.60;;;;;;5010836;28;20271;-88
2022/02/12 14:48:29;;;;;;;8.50;2.27;;;11.00;72.30;;;;;;5017485;28;20652;-89
2022/02/12 14:50:55;;;;;;;6.43;2.37;;;11.00;72.30;;;;;;5001747;28;20637;-89
2022/02/12 14:53:21;;;;;;;5.07;2.50;;;10.90;72.70;;;;;;5002258;28;20188;-88
2022/02/12 14:55:47;;;;;;;7.63;2.73;;;10.80;73.00;;;;;;5003371;28;20203;-90
2022/02/12 14:58:13;;;;;;;6.63;3.20;;;10.70;73.20;;;;;;5015574;28;20220;-88
2022/02/12 15:00:39;;;;;;;5.87;2.47;;;10.60;74.10;;;;;;5017759;28;20211;-89
2022/02/12 15:03:05;;;;;;;8.47;2.90;;;10.60;74.30;;;;;;5016479;28;20654;-88
2022/02/12 15:05:31;;;;;;;8.83;2.83;;;10.60;75.10;;;;;;5007665;28;20214;-86
2022/02/12 15:07:56;;;;;;;14.17;3.17;;;10.40;73.40;;;;;;5002923;28;20185;-89
2022/02/12 15:10:22;;;;;;;7.27;2.50;;;10.40;74.40;;;;;;4998222;28;20199;-89
2022/02/12 15:12:47;;;;;;;6.90;2.47;;;10.30;74.70;;;;;;4998134;28;20695;-89
2022/02/12 15:15:13;;;;;;;7.03;2.93;;;10.50;75.10;;;;;;4998073;28;20181;-88
2022/02/12 15:17:39;;;;;;;6.50;2.93;;;10.50;75.10;;;;;;5003454;28;20189;-88
2022/02/12 15:20:08;;;;;;;5.53;2.13;;;10.60;75.10;;;;;;5011447;28;20220;-89
2022/02/12 15:22:34;;;;;;;7.00;2.50;;;10.60;73.60;;;;;;5000899;28;20212;-88
2022/02/12 15:25:00;;;;;;;4.77;2.00;;;10.30;73.60;;;;;;5009285;28;20189;-88
2022/02/12 15:27:25;;;;;;;8.40;2.23;;;9.90;74.30;;;;;;4999219;28;20230;-89
2022/02/12 15:29:51;;;;;;;6.37;2.30;;;9.80;74.80;;;;;;4997779;28;20193;-89
2022/02/12 15:32:17;;;;;;;4.03;2.07;;;9.80;75.30;;;;;;4997099;28;20190;-92
2022/02/12 15:34:42;;;;;;;7.90;2.50;;;9.80;75.20;;;;;;4998264;28;20275;-89
2022/02/12 15:37:08;;;;;;;7.87;3.07;;;10.00;75.20;;;;;;5003802;28;20230;-88
2022/02/12 15:39:37;;;;;;;6.97;2.40;;;10.40;75.10;;;;;;5003617;28;20185;-88
2022/02/12 15:42:05;;;;;;;5.97;2.67;;;10.70;74.80;;;;;;5002867;28;20185;-89
2022/02/12 15:44:30;;;;;;;5.97;2.40;;;11.10;74.10;;;;;;5012811;28;20181;-89
2022/02/12 15:46:57;;;;;;;7.20;2.50;;;11.50;74.10;;;;;;4999480;28;20192;-90
2022/02/12 15:49:24;;;;;;;10.50;2.90;;;12.00;73.10;;;;;;5008819;28;20188;-87
2022/02/12 15:51:49;;;;;;;7.73;2.97;;;12.10;72.30;;;;;;4977766;28;20204;-88
2022/02/12 15:54:15;;;;;;;6.10;2.50;;;11.90;73.30;;;;;;4994479;28;20265;-89
2022/02/12 15:56:41;;;;;;;7.80;3.07;;;11.50;73.30;;;;;;4982332;28;20208;-89
2022/02/12 15:59:06;;;;;;;7.53;3.07;;;11.20;73.60;;;;;;4997592;28;20188;-88
2022/02/12 16:01:32;;;;;;;5.50;2.50;;;11.00;74.60;;;;;;4997178;28;20185;-89
2022/02/12 16:03:57;;;;;;;5.00;2.13;;;10.80;74.70;;;;;;4997787;28;20246;-90
2022/02/12 16:06:24;;;;;;;5.50;2.50;;;10.70;75.60;;;;;;4997211;28;20284;-88
2022/02/12 16:08:49;;;;;;;5.60;2.60;;;10.60;75.20;;;;;;4997516;28;20229;-89
2022/02/12 16:11:15;;;;;;;3.93;1.97;;;10.30;76.40;;;;;;4996715;28;20619;-89
2022/02/12 16:13:41;;;;;;;6.63;3.17;;;10.30;76.80;;;;;;4996897;28;20177;-89
2022/02/12 16:16:08;;;;;;;9.70;3.10;;;10.30;76.90;;;;;;4996910;28;20209;-89
2022/02/12 16:18:39;;;;;;;7.53;2.70;;;10.20;77.20;;;;;;4996857;28;20180;-88
2022/02/12 16:21:05;;;;;;;8.23;3.57;;;10.10;77.60;;;;;;4996826;28;20189;-89
2022/02/12 16:23:31;;;;;;;9.47;4.17;;;9.90;77.90;;;;;;4997176;28;20181;-89
2022/02/12 16:25:56;;;;;;;8.63;3.67;;;9.80;78.50;;;;;;4996835;28;20241;-89
2022/02/12 16:28:22;;;;;;;12.90;5.07;;;9.90;78.80;;;;;;4996918;28;20616;-89
2022/02/12 16:30:49;;;;;;;15.87;8.70;;;9.80;79.10;;;;;;4996973;28;20187;-89
2022/02/12 16:33:15;;;;;;;9.60;4.63;;;9.80;79.00;;;;;;4996662;28;20519;-88
2022/02/12 16:35:40;;;;;;;8.73;3.47;;;9.90;79.00;;;;;;4996323;28;20244;-88
2022/02/12 16:38:06;;;;;;;7.33;3.37;;;9.80;79.30;;;;;;4995844;28;20619;-90
2022/02/12 16:40:32;;;;;;;11.07;3.30;;;9.90;79.20;;;;;;5005052;28;20195;-87
2022/02/12 16:42:59;;;;;;;9.37;4.40;;;9.80;79.40;;;;;;5017451;28;20185;-91
2022/02/12 16:45:25;;;;;;;8.83;3.57;;;9.60;79.90;;;;;;5018133;28;20183;-90
2022/02/12 16:47:51;;;;;;;11.47;4.87;;;9.50;81.20;;;;;;5017365;28;20208;-88
2022/02/12 16:50:16;;;;;;;10.17;3.87;;;9.50;81.30;;;;;;5004424;28;20198;-91
2022/02/12 16:52:42;;;;;;;8.33;4.07;;;9.50;81.20;;;;;;4978077;28;20341;-91
2022/02/12 16:55:09;;;;;;;6.90;3.50;;;9.40;81.50;;;;;;4977695;28;20188;-91